sensor_id;sensor_type;location;lat;lon;timestamp;P1;durP1;ratioP1;P2;durP2;ratioP2
40635;SDS011;26642;55.766;37.828;2023-07-29T00:00:54;1.75;;;0.85;;
40635;SDS011;26642;55.766;37.828;2023-07-29T00:03:21;5.40;;;1.10;;
40635;SDS011;26642;55.766;37.828;2023-07-29T00:05:47;1.75;;;0.98;;
40635;SDS011;26642;55.766;37.828;2023-07-29T00:08:13;1.48;;;1.15;;
40635;SDS011;26642;55.766;37.828;2023-07-29T00:10:39;1.90;;;0.90;;
40635;SDS011;26642;55.766;37.828;2023-07-29T00:13:05;3.00;;;1.10;;
40635;SDS011;26642;55.766;37.828;2023-07-29T00:15:33;1.05;;;1.02;;
40635;SDS011;26642;55.766;37.828;2023-07-29T00:17:59;1.08;;;0.90;;
40635;SDS011;26642;55.766;37.828;2023-07-29T00:20:25;1.20;;;0.90;;
40635;SDS011;26642;55.766;37.828;2023-07-29T00:22:51;2.08;;;0.95;;
40635;SDS011;26642;55.766;37.828;2023-07-29T00:25:20;1.23;;;0.90;;
40635;SDS011;26642;55.766;37.828;2023-07-29T00:27:46;1.20;;;0.90;;
40635;SDS011;26642;55.766;37.828;2023-07-29T00:30:13;1.40;;;0.75;;
40635;SDS011;26642;55.766;37.828;2023-07-29T00:32:39;1.10;;;0.90;;
40635;SDS011;26642;55.766;37.828;2023-07-29T00:35:05;0.82;;;0.77;;
40635;SDS011;26642;55.766;37.828;2023-07-29T00:37:31;0.98;;;0.90;;
40635;SDS011;26642;55.766;37.828;2023-07-29T00:39:57;1.90;;;0.85;;
40635;SDS011;26642;55.766;37.828;2023-07-29T00:42:23;2.35;;;0.77;;
40635;SDS011;26642;55.766;37.828;2023-07-29T00:44:50;1.20;;;0.85;;
40635;SDS011;26642;55.766;37.828;2023-07-29T00:47:16;2.28;;;1.00;;
40635;SDS011;26642;55.766;37.828;2023-07-29T00:49:43;1.10;;;1.00;;
40635;SDS011;26642;55.766;37.828;2023-07-29T00:52:09;1.15;;;0.70;;
40635;SDS011;26642;55.766;37.828;2023-07-29T00:54:40;2.75;;;0.88;;
40635;SDS011;26642;55.766;37.828;2023-07-29T00:57:10;2.28;;;0.98;;
40635;SDS011;26642;55.766;37.828;2023-07-29T00:59:39;1.40;;;0.90;;
40635;SDS011;26642;55.766;37.828;2023-07-29T01:02:05;0.93;;;0.90;;
40635;SDS011;26642;55.766;37.828;2023-07-29T01:04:32;0.90;;;0.90;;
40635;SDS011;26642;55.766;37.828;2023-07-29T01:07:03;2.08;;;0.93;;
40635;SDS011;26642;55.766;37.828;2023-07-29T01:09:57;1.65;;;0.88;;
40635;SDS011;26642;55.766;37.828;2023-07-29T01:17:42;7.93;;;1.20;;
40635;SDS011;26642;55.766;37.828;2023-07-29T01:20:14;1.48;;;0.88;;
40635;SDS011;26642;55.766;37.828;2023-07-29T01:22:41;1.55;;;0.88;;
40635;SDS011;26642;55.766;37.828;2023-07-29T01:25:07;2.05;;;0.80;;
40635;SDS011;26642;55.766;37.828;2023-07-29T01:27:34;2.55;;;1.13;;
40635;SDS011;26642;55.766;37.828;2023-07-29T01:30:00;1.10;;;0.98;;
40635;SDS011;26642;55.766;37.828;2023-07-29T01:33:14;2.55;;;1.17;;
40635;SDS011;26642;55.766;37.828;2023-07-29T01:35:23;2.78;;;1.15;;
40635;SDS011;26642;55.766;37.828;2023-07-29T01:38:13;0.95;;;0.95;;
40635;SDS011;26642;55.766;37.828;2023-07-29T01:40:44;1.20;;;1.10;;
40635;SDS011;26642;55.766;37.828;2023-07-29T01:43:12;1.20;;;1.10;;
40635;SDS011;26642;55.766;37.828;2023-07-29T01:45:38;1.17;;;0.98;;
40635;SDS011;26642;55.766;37.828;2023-07-29T01:48:05;1.73;;;0.95;;
40635;SDS011;26642;55.766;37.828;2023-07-29T01:50:32;2.10;;;1.00;;
40635;SDS011;26642;55.766;37.828;2023-07-29T01:52:58;3.70;;;1.40;;
40635;SDS011;26642;55.766;37.828;2023-07-29T01:55:24;1.30;;;1.20;;
40635;SDS011;26642;55.766;37.828;2023-07-29T01:57:50;0.95;;;0.90;;
40635;SDS011;26642;55.766;37.828;2023-07-29T02:00:20;1.73;;;1.27;;
40635;SDS011;26642;55.766;37.828;2023-07-29T02:02:46;2.72;;;1.20;;
40635;SDS011;26642;55.766;37.828;2023-07-29T02:05:13;1.63;;;1.30;;
40635;SDS011;26642;55.766;37.828;2023-07-29T02:07:39;1.88;;;1.35;;
40635;SDS011;26642;55.766;37.828;2023-07-29T02:10:05;5.10;;;1.75;;
40635;SDS011;26642;55.766;37.828;2023-07-29T02:12:31;1.90;;;1.50;;
40635;SDS011;26642;55.766;37.828;2023-07-29T02:14:57;1.08;;;1.00;;
40635;SDS011;26642;55.766;37.828;2023-07-29T02:17:23;2.20;;;1.30;;
40635;SDS011;26642;55.766;37.828;2023-07-29T02:19:49;1.60;;;1.50;;
40635;SDS011;26642;55.766;37.828;2023-07-29T02:22:16;2.78;;;1.67;;
40635;SDS011;26642;55.766;37.828;2023-07-29T02:24:43;1.73;;;1.40;;
40635;SDS011;26642;55.766;37.828;2023-07-29T02:27:10;1.77;;;1.50;;
40635;SDS011;26642;55.766;37.828;2023-07-29T02:29:36;2.38;;;1.23;;
40635;SDS011;26642;55.766;37.828;2023-07-29T02:32:02;1.35;;;1.25;;
40635;SDS011;26642;55.766;37.828;2023-07-29T02:34:28;2.25;;;1.30;;
40635;SDS011;26642;55.766;37.828;2023-07-29T02:36:55;1.50;;;1.10;;
40635;SDS011;26642;55.766;37.828;2023-07-29T02:39:21;2.83;;;1.30;;
40635;SDS011;26642;55.766;37.828;2023-07-29T02:41:48;1.60;;;1.08;;
40635;SDS011;26642;55.766;37.828;2023-07-29T02:44:15;3.72;;;1.27;;
40635;SDS011;26642;55.766;37.828;2023-07-29T02:46:41;1.40;;;1.30;;
40635;SDS011;26642;55.766;37.828;2023-07-29T02:49:07;1.90;;;1.10;;
40635;SDS011;26642;55.766;37.828;2023-07-29T02:51:33;1.30;;;1.20;;
40635;SDS011;26642;55.766;37.828;2023-07-29T02:53:59;2.05;;;1.10;;
40635;SDS011;26642;55.766;37.828;2023-07-29T02:56:25;2.17;;;1.00;;
40635;SDS011;26642;55.766;37.828;2023-07-29T02:58:51;1.48;;;1.00;;
40635;SDS011;26642;55.766;37.828;2023-07-29T03:01:17;2.58;;;1.45;;
40635;SDS011;26642;55.766;37.828;2023-07-29T03:03:44;3.65;;;1.70;;
40635;SDS011;26642;55.766;37.828;2023-07-29T03:06:14;1.45;;;1.35;;
40635;SDS011;26642;55.766;37.828;2023-07-29T03:08:40;4.30;;;1.80;;
40635;SDS011;26642;55.766;37.828;2023-07-29T03:11:07;2.22;;;1.25;;
40635;SDS011;26642;55.766;37.828;2023-07-29T03:13:35;3.95;;;1.50;;
40635;SDS011;26642;55.766;37.828;2023-07-29T03:16:05;3.65;;;1.48;;
40635;SDS011;26642;55.766;37.828;2023-07-29T03:18:38;2.83;;;1.45;;
40635;SDS011;26642;55.766;37.828;2023-07-29T03:21:04;1.25;;;1.13;;
40635;SDS011;26642;55.766;37.828;2023-07-29T03:23:30;1.42;;;1.30;;
40635;SDS011;26642;55.766;37.828;2023-07-29T03:25:57;1.88;;;1.30;;
40635;SDS011;26642;55.766;37.828;2023-07-29T03:28:28;1.38;;;1.20;;
40635;SDS011;26642;55.766;37.828;2023-07-29T03:30:55;2.90;;;1.20;;
40635;SDS011;26642;55.766;37.828;2023-07-29T03:33:21;1.52;;;1.40;;
40635;SDS011;26642;55.766;37.828;2023-07-29T03:35:48;1.33;;;1.23;;
40635;SDS011;26642;55.766;37.828;2023-07-29T03:38:14;2.08;;;1.30;;
40635;SDS011;26642;55.766;37.828;2023-07-29T03:40:41;2.97;;;1.70;;
40635;SDS011;26642;55.766;37.828;2023-07-29T03:43:07;1.55;;;1.45;;
40635;SDS011;26642;55.766;37.828;2023-07-29T03:45:34;2.28;;;1.30;;
40635;SDS011;26642;55.766;37.828;2023-07-29T03:48:01;2.58;;;1.40;;
40635;SDS011;26642;55.766;37.828;2023-07-29T03:50:27;2.70;;;1.40;;
40635;SDS011;26642;55.766;37.828;2023-07-29T03:52:54;1.77;;;1.67;;
40635;SDS011;26642;55.766;37.828;2023-07-29T03:55:21;2.63;;;1.40;;
40635;SDS011;26642;55.766;37.828;2023-07-29T03:57:47;1.88;;;1.55;;
40635;SDS011;26642;55.766;37.828;2023-07-29T04:00:13;1.48;;;1.38;;
40635;SDS011;26642;55.766;37.828;2023-07-29T04:02:42;2.25;;;1.42;;
40635;SDS011;26642;55.766;37.828;2023-07-29T04:05:09;1.85;;;1.40;;
40635;SDS011;26642;55.766;37.828;2023-07-29T04:07:36;2.13;;;1.40;;
40635;SDS011;26642;55.766;37.828;2023-07-29T04:10:02;2.72;;;1.60;;
40635;SDS011;26642;55.766;37.828;2023-07-29T04:12:30;2.08;;;1.60;;
40635;SDS011;26642;55.766;37.828;2023-07-29T04:14:56;2.80;;;1.60;;
40635;SDS011;26642;55.766;37.828;2023-07-29T04:17:22;1.60;;;1.50;;
40635;SDS011;26642;55.766;37.828;2023-07-29T04:19:48;1.55;;;1.45;;
40635;SDS011;26642;55.766;37.828;2023-07-29T04:22:15;1.88;;;1.52;;
40635;SDS011;26642;55.766;37.828;2023-07-29T04:24:42;1.58;;;1.48;;
40635;SDS011;26642;55.766;37.828;2023-07-29T04:27:08;3.15;;;1.50;;
40635;SDS011;26642;55.766;37.828;2023-07-29T04:29:36;1.70;;;1.60;;
40635;SDS011;26642;55.766;37.828;2023-07-29T04:32:02;1.75;;;1.40;;
40635;SDS011;26642;55.766;37.828;2023-07-29T04:34:28;2.25;;;1.30;;
40635;SDS011;26642;55.766;37.828;2023-07-29T04:36:54;3.70;;;1.80;;
40635;SDS011;26642;55.766;37.828;2023-07-29T04:39:20;3.03;;;1.77;;
40635;SDS011;26642;55.766;37.828;2023-07-29T04:41:46;2.63;;;1.77;;
40635;SDS011;26642;55.766;37.828;2023-07-29T04:44:14;2.03;;;1.58;;
40635;SDS011;26642;55.766;37.828;2023-07-29T04:46:40;1.63;;;1.52;;
40635;SDS011;26642;55.766;37.828;2023-07-29T04:49:05;4.00;;;1.77;;
40635;SDS011;26642;55.766;37.828;2023-07-29T04:51:31;3.63;;;1.63;;
40635;SDS011;26642;55.766;37.828;2023-07-29T04:53:58;3.10;;;1.50;;
40635;SDS011;26642;55.766;37.828;2023-07-29T04:56:24;2.38;;;1.30;;
40635;SDS011;26642;55.766;37.828;2023-07-29T04:58:51;2.75;;;1.60;;
40635;SDS011;26642;55.766;37.828;2023-07-29T05:01:17;5.28;;;1.58;;
40635;SDS011;26642;55.766;37.828;2023-07-29T05:03:43;2.80;;;1.40;;
40635;SDS011;26642;55.766;37.828;2023-07-29T05:06:11;1.38;;;1.27;;
40635;SDS011;26642;55.766;37.828;2023-07-29T05:08:37;4.07;;;1.52;;
40635;SDS011;26642;55.766;37.828;2023-07-29T05:11:03;2.28;;;1.50;;
40635;SDS011;26642;55.766;37.828;2023-07-29T05:13:29;2.38;;;1.90;;
40635;SDS011;26642;55.766;37.828;2023-07-29T05:15:55;2.35;;;1.40;;
40635;SDS011;26642;55.766;37.828;2023-07-29T05:18:21;6.43;;;2.17;;
40635;SDS011;26642;55.766;37.828;2023-07-29T05:20:48;3.58;;;1.70;;
40635;SDS011;26642;55.766;37.828;2023-07-29T05:23:14;1.75;;;1.33;;
40635;SDS011;26642;55.766;37.828;2023-07-29T05:25:41;3.92;;;1.50;;
40635;SDS011;26642;55.766;37.828;2023-07-29T05:28:07;2.92;;;1.38;;
40635;SDS011;26642;55.766;37.828;2023-07-29T05:30:33;2.10;;;1.42;;
40635;SDS011;26642;55.766;37.828;2023-07-29T05:33:03;3.50;;;1.27;;
40635;SDS011;26642;55.766;37.828;2023-07-29T05:35:38;3.05;;;1.30;;
40635;SDS011;26642;55.766;37.828;2023-07-29T05:38:05;1.75;;;1.23;;
40635;SDS011;26642;55.766;37.828;2023-07-29T05:40:33;2.42;;;1.60;;
40635;SDS011;26642;55.766;37.828;2023-07-29T05:42:59;2.85;;;1.10;;
40635;SDS011;26642;55.766;37.828;2023-07-29T05:45:25;2.78;;;1.33;;
40635;SDS011;26642;55.766;37.828;2023-07-29T05:47:51;1.88;;;1.30;;
40635;SDS011;26642;55.766;37.828;2023-07-29T05:50:17;2.25;;;1.10;;
40635;SDS011;26642;55.766;37.828;2023-07-29T05:52:43;4.40;;;1.63;;
40635;SDS011;26642;55.766;37.828;2023-07-29T05:55:09;1.33;;;1.23;;
40635;SDS011;26642;55.766;37.828;2023-07-29T05:57:35;1.88;;;1.33;;
40635;SDS011;26642;55.766;37.828;2023-07-29T06:00:01;2.30;;;1.15;;
40635;SDS011;26642;55.766;37.828;2023-07-29T06:02:38;1.90;;;1.50;;
40635;SDS011;26642;55.766;37.828;2023-07-29T06:05:07;2.08;;;1.67;;
40635;SDS011;26642;55.766;37.828;2023-07-29T06:07:33;1.70;;;1.60;;
40635;SDS011;26642;55.766;37.828;2023-07-29T06:10:00;1.38;;;1.27;;
40635;SDS011;26642;55.766;37.828;2023-07-29T06:12:26;1.88;;;1.58;;
40635;SDS011;26642;55.766;37.828;2023-07-29T06:14:52;1.67;;;1.38;;
40635;SDS011;26642;55.766;37.828;2023-07-29T06:17:18;2.30;;;1.45;;
40635;SDS011;26642;55.766;37.828;2023-07-29T06:19:44;1.55;;;1.13;;
40635;SDS011;26642;55.766;37.828;2023-07-29T06:22:10;1.80;;;1.30;;
40635;SDS011;26642;55.766;37.828;2023-07-29T06:24:36;1.50;;;1.40;;
40635;SDS011;26642;55.766;37.828;2023-07-29T06:27:02;2.80;;;1.40;;
40635;SDS011;26642;55.766;37.828;2023-07-29T06:29:28;3.08;;;1.13;;
40635;SDS011;26642;55.766;37.828;2023-07-29T06:31:54;1.20;;;1.08;;
40635;SDS011;26642;55.766;37.828;2023-07-29T06:34:20;7.70;;;1.67;;
40635;SDS011;26642;55.766;37.828;2023-07-29T06:36:46;1.60;;;1.25;;
40635;SDS011;26642;55.766;37.828;2023-07-29T06:39:11;2.25;;;1.50;;
40635;SDS011;26642;55.766;37.828;2023-07-29T06:41:37;2.47;;;1.10;;
40635;SDS011;26642;55.766;37.828;2023-07-29T06:44:03;4.38;;;1.48;;
40635;SDS011;26642;55.766;37.828;2023-07-29T06:46:29;1.90;;;1.15;;
40635;SDS011;26642;55.766;37.828;2023-07-29T06:48:55;1.77;;;1.40;;
40635;SDS011;26642;55.766;37.828;2023-07-29T06:51:21;2.28;;;1.40;;
40635;SDS011;26642;55.766;37.828;2023-07-29T06:53:47;1.42;;;1.30;;
40635;SDS011;26642;55.766;37.828;2023-07-29T06:56:13;2.55;;;1.25;;
40635;SDS011;26642;55.766;37.828;2023-07-29T06:58:40;1.48;;;1.38;;
40635;SDS011;26642;55.766;37.828;2023-07-29T07:01:06;1.30;;;1.20;;
40635;SDS011;26642;55.766;37.828;2023-07-29T07:03:32;1.30;;;1.20;;
40635;SDS011;26642;55.766;37.828;2023-07-29T07:05:58;1.40;;;1.30;;
40635;SDS011;26642;55.766;37.828;2023-07-29T07:08:24;3.90;;;1.13;;
40635;SDS011;26642;55.766;37.828;2023-07-29T07:10:50;3.25;;;1.20;;
40635;SDS011;26642;55.766;37.828;2023-07-29T07:13:16;3.05;;;1.38;;
40635;SDS011;26642;55.766;37.828;2023-07-29T07:15:42;3.08;;;1.75;;
40635;SDS011;26642;55.766;37.828;2023-07-29T07:18:08;1.83;;;1.10;;
40635;SDS011;26642;55.766;37.828;2023-07-29T07:20:34;1.95;;;1.10;;
40635;SDS011;26642;55.766;37.828;2023-07-29T07:23:00;1.40;;;1.30;;
40635;SDS011;26642;55.766;37.828;2023-07-29T07:25:26;2.47;;;1.15;;
40635;SDS011;26642;55.766;37.828;2023-07-29T07:27:52;1.25;;;1.17;;
40635;SDS011;26642;55.766;37.828;2023-07-29T07:30:18;2.50;;;1.38;;
40635;SDS011;26642;55.766;37.828;2023-07-29T07:32:44;4.00;;;1.50;;
40635;SDS011;26642;55.766;37.828;2023-07-29T07:35:10;3.30;;;1.77;;
40635;SDS011;26642;55.766;37.828;2023-07-29T07:37:36;2.08;;;1.63;;
40635;SDS011;26642;55.766;37.828;2023-07-29T07:40:02;2.55;;;1.40;;
40635;SDS011;26642;55.766;37.828;2023-07-29T07:42:28;2.90;;;1.40;;
40635;SDS011;26642;55.766;37.828;2023-07-29T07:44:54;1.65;;;1.20;;
40635;SDS011;26642;55.766;37.828;2023-07-29T07:47:20;2.47;;;1.50;;
40635;SDS011;26642;55.766;37.828;2023-07-29T07:49:46;2.53;;;1.50;;
40635;SDS011;26642;55.766;37.828;2023-07-29T07:52:14;4.53;;;1.33;;
40635;SDS011;26642;55.766;37.828;2023-07-29T07:54:40;1.42;;;1.33;;
40635;SDS011;26642;55.766;37.828;2023-07-29T07:57:06;1.95;;;1.25;;
40635;SDS011;26642;55.766;37.828;2023-07-29T07:59:32;1.30;;;1.17;;
40635;SDS011;26642;55.766;37.828;2023-07-29T08:01:58;2.47;;;1.27;;
40635;SDS011;26642;55.766;37.828;2023-07-29T08:04:24;1.63;;;1.13;;
40635;SDS011;26642;55.766;37.828;2023-07-29T08:06:50;1.40;;;1.05;;
40635;SDS011;26642;55.766;37.828;2023-07-29T08:09:15;1.80;;;1.30;;
40635;SDS011;26642;55.766;37.828;2023-07-29T08:11:41;1.48;;;1.38;;
40635;SDS011;26642;55.766;37.828;2023-07-29T08:14:07;2.40;;;1.25;;
40635;SDS011;26642;55.766;37.828;2023-07-29T08:16:33;1.45;;;1.20;;
40635;SDS011;26642;55.766;37.828;2023-07-29T08:18:59;2.67;;;1.40;;
40635;SDS011;26642;55.766;37.828;2023-07-29T08:21:26;1.45;;;1.23;;
40635;SDS011;26642;55.766;37.828;2023-07-29T08:23:52;2.03;;;1.35;;
40635;SDS011;26642;55.766;37.828;2023-07-29T08:26:18;1.65;;;1.10;;
40635;SDS011;26642;55.766;37.828;2023-07-29T08:28:44;1.30;;;1.20;;
40635;SDS011;26642;55.766;37.828;2023-07-29T08:31:10;2.05;;;1.30;;
40635;SDS011;26642;55.766;37.828;2023-07-29T08:33:36;2.42;;;1.48;;
40635;SDS011;26642;55.766;37.828;2023-07-29T08:36:02;1.88;;;1.13;;
40635;SDS011;26642;55.766;37.828;2023-07-29T08:38:34;1.60;;;1.10;;
40635;SDS011;26642;55.766;37.828;2023-07-29T08:43:39;2.50;;;1.60;;
40635;SDS011;26642;55.766;37.828;2023-07-29T08:46:14;2.22;;;1.33;;
40635;SDS011;26642;55.766;37.828;2023-07-29T08:48:42;3.38;;;1.35;;
40635;SDS011;26642;55.766;37.828;2023-07-29T08:51:09;2.65;;;1.70;;
40635;SDS011;26642;55.766;37.828;2023-07-29T08:53:36;2.65;;;1.60;;
40635;SDS011;26642;55.766;37.828;2023-07-29T08:56:02;3.78;;;1.50;;
40635;SDS011;26642;55.766;37.828;2023-07-29T08:58:30;1.98;;;1.23;;
40635;SDS011;26642;55.766;37.828;2023-07-29T09:00:56;2.55;;;1.60;;
40635;SDS011;26642;55.766;37.828;2023-07-29T09:03:23;2.05;;;1.85;;
40635;SDS011;26642;55.766;37.828;2023-07-29T09:05:49;1.60;;;1.50;;
40635;SDS011;26642;55.766;37.828;2023-07-29T09:08:16;2.35;;;1.55;;
40635;SDS011;26642;55.766;37.828;2023-07-29T09:10:42;2.05;;;1.70;;
40635;SDS011;26642;55.766;37.828;2023-07-29T09:13:08;2.63;;;1.60;;
40635;SDS011;26642;55.766;37.828;2023-07-29T09:15:35;2.55;;;1.50;;
40635;SDS011;26642;55.766;37.828;2023-07-29T09:18:11;2.72;;;1.70;;
40635;SDS011;26642;55.766;37.828;2023-07-29T09:20:39;9.02;;;2.30;;
40635;SDS011;26642;55.766;37.828;2023-07-29T09:23:09;3.13;;;1.80;;
40635;SDS011;26642;55.766;37.828;2023-07-29T09:25:36;2.95;;;1.63;;
40635;SDS011;26642;55.766;37.828;2023-07-29T09:28:07;3.28;;;1.75;;
40635;SDS011;26642;55.766;37.828;2023-07-29T09:30:35;3.13;;;1.90;;
40635;SDS011;26642;55.766;37.828;2023-07-29T09:33:02;2.55;;;2.15;;
40635;SDS011;26642;55.766;37.828;2023-07-29T09:35:29;2.17;;;1.70;;
40635;SDS011;26642;55.766;37.828;2023-07-29T09:37:57;4.10;;;1.80;;
40635;SDS011;26642;55.766;37.828;2023-07-29T09:40:23;2.60;;;1.92;;
40635;SDS011;26642;55.766;37.828;2023-07-29T09:42:50;2.65;;;1.83;;
40635;SDS011;26642;55.766;37.828;2023-07-29T09:45:20;4.15;;;2.00;;
40635;SDS011;26642;55.766;37.828;2023-07-29T09:47:48;2.00;;;1.80;;
40635;SDS011;26642;55.766;37.828;2023-07-29T09:50:14;3.42;;;1.88;;
40635;SDS011;26642;55.766;37.828;2023-07-29T09:52:41;2.53;;;2.00;;
40635;SDS011;26642;55.766;37.828;2023-07-29T09:55:09;2.05;;;1.90;;
40635;SDS011;26642;55.766;37.828;2023-07-29T09:57:38;1.95;;;1.80;;
40635;SDS011;26642;55.766;37.828;2023-07-29T10:00:05;2.25;;;1.50;;
40635;SDS011;26642;55.766;37.828;2023-07-29T10:02:39;2.40;;;1.77;;
40635;SDS011;26642;55.766;37.828;2023-07-29T10:05:07;2.40;;;2.10;;
40635;SDS011;26642;55.766;37.828;2023-07-29T10:07:35;3.28;;;2.08;;
40635;SDS011;26642;55.766;37.828;2023-07-29T10:10:03;2.55;;;1.90;;
40635;SDS011;26642;55.766;37.828;2023-07-29T10:12:33;2.50;;;1.90;;
40635;SDS011;26642;55.766;37.828;2023-07-29T10:15:01;1.77;;;1.67;;
40635;SDS011;26642;55.766;37.828;2023-07-29T10:17:30;3.30;;;1.70;;
40635;SDS011;26642;55.766;37.828;2023-07-29T10:19:58;2.45;;;1.40;;
40635;SDS011;26642;55.766;37.828;2023-07-29T10:22:27;2.83;;;1.40;;
40635;SDS011;26642;55.766;37.828;2023-07-29T10:24:59;2.30;;;1.70;;
40635;SDS011;26642;55.766;37.828;2023-07-29T10:28:07;3.42;;;1.67;;
40635;SDS011;26642;55.766;37.828;2023-07-29T10:30:33;2.60;;;1.48;;
40635;SDS011;26642;55.766;37.828;2023-07-29T10:33:01;4.03;;;1.80;;
40635;SDS011;26642;55.766;37.828;2023-07-29T10:35:29;1.83;;;1.70;;
40635;SDS011;26642;55.766;37.828;2023-07-29T10:37:55;1.98;;;1.75;;
40635;SDS011;26642;55.766;37.828;2023-07-29T10:40:22;3.95;;;1.90;;
40635;SDS011;26642;55.766;37.828;2023-07-29T10:43:09;2.20;;;1.67;;
40635;SDS011;26642;55.766;37.828;2023-07-29T10:45:36;1.70;;;1.60;;
40635;SDS011;26642;55.766;37.828;2023-07-29T10:48:09;1.92;;;1.77;;
40635;SDS011;26642;55.766;37.828;2023-07-29T10:53:55;2.35;;;1.98;;
40635;SDS011;26642;55.766;37.828;2023-07-29T10:56:27;2.30;;;2.10;;
40635;SDS011;26642;55.766;37.828;2023-07-29T10:58:56;3.60;;;2.60;;
40635;SDS011;26642;55.766;37.828;2023-07-29T11:01:56;4.32;;;3.25;;
40635;SDS011;26642;55.766;37.828;2023-07-29T11:04:23;5.25;;;3.80;;
40635;SDS011;26642;55.766;37.828;2023-07-29T11:17:39;5.50;;;4.53;;
40635;SDS011;26642;55.766;37.828;2023-07-29T11:20:18;7.80;;;4.22;;
40635;SDS011;26642;55.766;37.828;2023-07-29T11:22:45;5.82;;;3.88;;
40635;SDS011;26642;55.766;37.828;2023-07-29T11:25:12;7.10;;;4.35;;
40635;SDS011;26642;55.766;37.828;2023-07-29T11:27:40;6.13;;;3.95;;
40635;SDS011;26642;55.766;37.828;2023-07-29T11:30:07;6.20;;;4.03;;
40635;SDS011;26642;55.766;37.828;2023-07-29T11:32:35;8.25;;;4.18;;
40635;SDS011;26642;55.766;37.828;2023-07-29T11:35:08;5.65;;;4.85;;
40635;SDS011;26642;55.766;37.828;2023-07-29T11:37:36;9.38;;;4.95;;
40635;SDS011;26642;55.766;37.828;2023-07-29T11:40:03;7.65;;;6.00;;
40635;SDS011;26642;55.766;37.828;2023-07-29T11:42:31;9.05;;;6.55;;
40635;SDS011;26642;55.766;37.828;2023-07-29T11:44:59;10.73;;;7.45;;
40635;SDS011;26642;55.766;37.828;2023-07-29T11:47:25;10.48;;;6.47;;
40635;SDS011;26642;55.766;37.828;2023-07-29T11:49:52;11.93;;;6.20;;
40635;SDS011;26642;55.766;37.828;2023-07-29T11:52:18;6.35;;;4.82;;
40635;SDS011;26642;55.766;37.828;2023-07-29T11:54:46;7.32;;;5.13;;
40635;SDS011;26642;55.766;37.828;2023-07-29T11:57:14;6.40;;;4.65;;
40635;SDS011;26642;55.766;37.828;2023-07-29T11:59:40;8.82;;;4.82;;
40635;SDS011;26642;55.766;37.828;2023-07-29T12:02:09;5.43;;;4.35;;
40635;SDS011;26642;55.766;37.828;2023-07-29T12:04:41;9.73;;;4.43;;
40635;SDS011;26642;55.766;37.828;2023-07-29T12:07:08;5.53;;;4.05;;
40635;SDS011;26642;55.766;37.828;2023-07-29T12:09:35;5.55;;;4.05;;
40635;SDS011;26642;55.766;37.828;2023-07-29T12:12:05;4.88;;;3.80;;
40635;SDS011;26642;55.766;37.828;2023-07-29T12:14:32;5.13;;;3.72;;
40635;SDS011;26642;55.766;37.828;2023-07-29T12:17:02;5.65;;;3.70;;
40635;SDS011;26642;55.766;37.828;2023-07-29T12:22:00;6.20;;;3.40;;
40635;SDS011;26642;55.766;37.828;2023-07-29T12:24:26;5.15;;;3.63;;
40635;SDS011;26642;55.766;37.828;2023-07-29T12:26:54;4.93;;;2.97;;
40635;SDS011;26642;55.766;37.828;2023-07-29T12:29:20;5.10;;;3.50;;
40635;SDS011;26642;55.766;37.828;2023-07-29T12:31:46;4.97;;;3.00;;
40635;SDS011;26642;55.766;37.828;2023-07-29T12:34:19;4.63;;;2.80;;
40635;SDS011;26642;55.766;37.828;2023-07-29T12:36:49;3.03;;;2.65;;
40635;SDS011;26642;55.766;37.828;2023-07-29T12:39:22;3.92;;;2.90;;
40635;SDS011;26642;55.766;37.828;2023-07-29T12:41:54;4.20;;;2.80;;
40635;SDS011;26642;55.766;37.828;2023-07-29T12:44:25;4.72;;;2.67;;
40635;SDS011;26642;55.766;37.828;2023-07-29T12:46:55;5.25;;;2.88;;
40635;SDS011;26642;55.766;37.828;2023-07-29T12:49:21;6.85;;;2.83;;
40635;SDS011;26642;55.766;37.828;2023-07-29T12:51:47;8.18;;;2.75;;
40635;SDS011;26642;55.766;37.828;2023-07-29T12:54:13;4.82;;;3.13;;
40635;SDS011;26642;55.766;37.828;2023-07-29T12:56:39;5.65;;;3.20;;
40635;SDS011;26642;55.766;37.828;2023-07-29T12:59:05;3.22;;;2.92;;
40635;SDS011;26642;55.766;37.828;2023-07-29T13:01:31;5.15;;;2.60;;
40635;SDS011;26642;55.766;37.828;2023-07-29T13:03:57;4.97;;;3.03;;
40635;SDS011;26642;55.766;37.828;2023-07-29T13:06:23;6.03;;;2.70;;
40635;SDS011;26642;55.766;37.828;2023-07-29T13:08:50;4.15;;;2.60;;
40635;SDS011;26642;55.766;37.828;2023-07-29T13:11:16;4.07;;;2.53;;
40635;SDS011;26642;55.766;37.828;2023-07-29T13:13:42;3.30;;;2.72;;
40635;SDS011;26642;55.766;37.828;2023-07-29T13:16:09;2.72;;;2.30;;
40635;SDS011;26642;55.766;37.828;2023-07-29T13:18:35;4.35;;;2.38;;
40635;SDS011;26642;55.766;37.828;2023-07-29T13:21:01;3.72;;;2.70;;
40635;SDS011;26642;55.766;37.828;2023-07-29T13:23:27;9.73;;;5.18;;
40635;SDS011;26642;55.766;37.828;2023-07-29T13:25:55;15.73;;;6.38;;
40635;SDS011;26642;55.766;37.828;2023-07-29T13:28:21;16.65;;;7.68;;
40635;SDS011;26642;55.766;37.828;2023-07-29T13:30:48;14.38;;;7.68;;
40635;SDS011;26642;55.766;37.828;2023-07-29T13:33:14;11.23;;;7.03;;
40635;SDS011;26642;55.766;37.828;2023-07-29T13:35:40;11.32;;;6.53;;
40635;SDS011;26642;55.766;37.828;2023-07-29T13:38:06;11.63;;;6.40;;
40635;SDS011;26642;55.766;37.828;2023-07-29T13:40:32;11.63;;;5.65;;
40635;SDS011;26642;55.766;37.828;2023-07-29T13:42:58;10.13;;;5.07;;
40635;SDS011;26642;55.766;37.828;2023-07-29T13:45:24;12.20;;;5.95;;
40635;SDS011;26642;55.766;37.828;2023-07-29T13:47:50;14.90;;;6.00;;
40635;SDS011;26642;55.766;37.828;2023-07-29T13:50:19;10.68;;;5.57;;
40635;SDS011;26642;55.766;37.828;2023-07-29T13:52:45;9.40;;;5.20;;
40635;SDS011;26642;55.766;37.828;2023-07-29T13:55:11;12.68;;;5.10;;
40635;SDS011;26642;55.766;37.828;2023-07-29T13:57:37;9.95;;;4.82;;
40635;SDS011;26642;55.766;37.828;2023-07-29T14:00:05;9.52;;;4.47;;
40635;SDS011;26642;55.766;37.828;2023-07-29T14:02:38;9.07;;;4.43;;
40635;SDS011;26642;55.766;37.828;2023-07-29T14:05:03;6.68;;;4.35;;
40635;SDS011;26642;55.766;37.828;2023-07-29T14:07:32;7.07;;;4.18;;
40635;SDS011;26642;55.766;37.828;2023-07-29T14:09:58;8.02;;;4.30;;
40635;SDS011;26642;55.766;37.828;2023-07-29T14:12:24;9.80;;;4.00;;
40635;SDS011;26642;55.766;37.828;2023-07-29T14:14:50;7.40;;;3.92;;
40635;SDS011;26642;55.766;37.828;2023-07-29T14:17:16;6.90;;;4.07;;
40635;SDS011;26642;55.766;37.828;2023-07-29T14:19:42;8.38;;;4.05;;
40635;SDS011;26642;55.766;37.828;2023-07-29T14:22:08;5.90;;;3.53;;
40635;SDS011;26642;55.766;37.828;2023-07-29T14:24:34;7.78;;;3.85;;
40635;SDS011;26642;55.766;37.828;2023-07-29T14:26:59;4.85;;;3.45;;
40635;SDS011;26642;55.766;37.828;2023-07-29T14:29:25;9.45;;;3.88;;
40635;SDS011;26642;55.766;37.828;2023-07-29T14:31:51;8.77;;;3.72;;
40635;SDS011;26642;55.766;37.828;2023-07-29T14:34:17;10.45;;;3.75;;
40635;SDS011;26642;55.766;37.828;2023-07-29T14:36:43;6.47;;;3.50;;
40635;SDS011;26642;55.766;37.828;2023-07-29T14:39:09;7.63;;;3.42;;
40635;SDS011;26642;55.766;37.828;2023-07-29T14:41:35;10.73;;;4.00;;
40635;SDS011;26642;55.766;37.828;2023-07-29T14:44:01;7.10;;;3.55;;
40635;SDS011;26642;55.766;37.828;2023-07-29T14:46:27;8.30;;;3.92;;
40635;SDS011;26642;55.766;37.828;2023-07-29T14:48:53;4.80;;;3.17;;
40635;SDS011;26642;55.766;37.828;2023-07-29T14:51:19;7.38;;;3.20;;
40635;SDS011;26642;55.766;37.828;2023-07-29T14:53:45;5.72;;;2.90;;
40635;SDS011;26642;55.766;37.828;2023-07-29T14:56:11;6.18;;;3.03;;
40635;SDS011;26642;55.766;37.828;2023-07-29T14:58:39;7.45;;;3.50;;